KRNO/RNO METAR and TAF weather

Enter ICAO airport designator
Station Type Date Time Source
KRNO METAR 2019/06/18 14:55 UTC NOAA

KRNO 181455Z 34003KT 10SM FEW200 22/04 A3018 RMK AO2 SLP160 T02170039 53014


Station Type Date Time Source
KRNO Decoded METAR 2019/06/18 14:55 UTC NOAA

RENO/TAHOE INTERNATIONAL AIRPORT, NV, United States (KRNO) 39-29N 119-46W 1342M
Jun 18, 2019 - 10:55 AM EDT / 2019.06.18 1455 UTC
Wind: from the NNW (340 degrees) at 3 MPH (3 KT):0
Visibility: 10 mile(s):0
Sky conditions: mostly clear
Temperature: 71.1 F (21.7 C)
Dew Point: 39.0 F (3.9 C)
Relative Humidity: 31%
Pressure (altimeter): 30.18 in. Hg (1022 hPa)
Pressure tendency: 0.04 inches (1.4 hPa) higher than three hours ago
ob: KRNO 181455Z 34003KT 10SM FEW200 22/04 A3018 RMK AO2 SLP160 T02170039 53014
cycle: 15

Station Type Date Time Source
KRNO TAF 2019/06/18 12:22 UTC NOAA

TAF KRNO 181120Z 1812/1912 VRB03KT P6SM FEW120
FM182000 04007KT P6SM SKC
FM190100 31007KT P6SM SKC

Example: see airport list